sensor_id;sensor_type;location;lat;lon;timestamp;temperature;humidity
25556;DHT22;13447;57.174;-2.112;2023-08-08T00:00:49;12.40;1.00
25556;DHT22;13447;57.174;-2.112;2023-08-08T00:03:16;12.40;1.00
25556;DHT22;13447;57.174;-2.112;2023-08-08T00:05:43;12.40;1.00
25556;DHT22;13447;57.174;-2.112;2023-08-08T00:08:09;12.40;1.00
25556;DHT22;13447;57.174;-2.112;2023-08-08T00:10:36;12.30;1.00
25556;DHT22;13447;57.174;-2.112;2023-08-08T00:13:03;12.30;1.00
25556;DHT22;13447;57.174;-2.112;2023-08-08T00:15:30;12.30;1.00
25556;DHT22;13447;57.174;-2.112;2023-08-08T00:17:57;12.20;1.00
25556;DHT22;13447;57.174;-2.112;2023-08-08T00:20:24;12.20;1.00
25556;DHT22;13447;57.174;-2.112;2023-08-08T00:22:51;12.10;1.00
25556;DHT22;13447;57.174;-2.112;2023-08-08T00:25:17;12.10;1.00
25556;DHT22;13447;57.174;-2.112;2023-08-08T00:27:44;12.10;1.00
25556;DHT22;13447;57.174;-2.112;2023-08-08T00:30:11;12.00;1.00
25556;DHT22;13447;57.174;-2.112;2023-08-08T00:32:39;11.90;1.00
25556;DHT22;13447;57.174;-2.112;2023-08-08T00:35:06;11.90;1.00
25556;DHT22;13447;57.174;-2.112;2023-08-08T00:37:33;11.90;1.00
25556;DHT22;13447;57.174;-2.112;2023-08-08T00:40:00;12.00;1.00
25556;DHT22;13447;57.174;-2.112;2023-08-08T00:42:27;12.00;1.00
25556;DHT22;13447;57.174;-2.112;2023-08-08T00:44:53;11.90;1.00
25556;DHT22;13447;57.174;-2.112;2023-08-08T00:47:20;11.90;1.00
25556;DHT22;13447;57.174;-2.112;2023-08-08T00:49:47;11.90;1.00
25556;DHT22;13447;57.174;-2.112;2023-08-08T00:52:15;11.90;1.00
25556;DHT22;13447;57.174;-2.112;2023-08-08T00:54:42;11.90;1.00
25556;DHT22;13447;57.174;-2.112;2023-08-08T00:57:09;11.80;1.00
25556;DHT22;13447;57.174;-2.112;2023-08-08T00:59:35;11.80;1.00
25556;DHT22;13447;57.174;-2.112;2023-08-08T01:02:02;11.70;1.00
25556;DHT22;13447;57.174;-2.112;2023-08-08T01:04:29;11.70;99.90
25556;DHT22;13447;57.174;-2.112;2023-08-08T01:12:08;11.60;1.00
25556;DHT22;13447;57.174;-2.112;2023-08-08T01:14:35;11.60;1.00
25556;DHT22;13447;57.174;-2.112;2023-08-08T01:17:02;11.50;1.00
25556;DHT22;13447;57.174;-2.112;2023-08-08T01:19:30;11.60;1.00
25556;DHT22;13447;57.174;-2.112;2023-08-08T01:21:59;11.50;1.00
25556;DHT22;13447;57.174;-2.112;2023-08-08T01:24:27;11.50;1.00
25556;DHT22;13447;57.174;-2.112;2023-08-08T01:26:56;11.40;1.00
25556;DHT22;13447;57.174;-2.112;2023-08-08T01:29:23;11.40;1.00
25556;DHT22;13447;57.174;-2.112;2023-08-08T01:31:49;11.30;1.00
25556;DHT22;13447;57.174;-2.112;2023-08-08T01:34:16;11.30;1.00
25556;DHT22;13447;57.174;-2.112;2023-08-08T01:39:11;11.30;1.00
25556;DHT22;13447;57.174;-2.112;2023-08-08T01:41:40;11.20;1.00
25556;DHT22;13447;57.174;-2.112;2023-08-08T01:44:07;11.20;1.00
25556;DHT22;13447;57.174;-2.112;2023-08-08T01:46:34;11.20;1.00
25556;DHT22;13447;57.174;-2.112;2023-08-08T01:49:03;11.10;1.00
25556;DHT22;13447;57.174;-2.112;2023-08-08T01:51:29;11.10;1.00
25556;DHT22;13447;57.174;-2.112;2023-08-08T01:53:56;11.20;1.00
25556;DHT22;13447;57.174;-2.112;2023-08-08T01:56:23;11.10;1.00
25556;DHT22;13447;57.174;-2.112;2023-08-08T01:58:50;10.90;1.00
25556;DHT22;13447;57.174;-2.112;2023-08-08T02:01:16;10.80;1.00
25556;DHT22;13447;57.174;-2.112;2023-08-08T02:03:43;10.60;1.00
25556;DHT22;13447;57.174;-2.112;2023-08-08T02:06:10;10.50;1.00
25556;DHT22;13447;57.174;-2.112;2023-08-08T02:08:37;10.50;1.00
25556;DHT22;13447;57.174;-2.112;2023-08-08T02:11:04;10.40;1.00
25556;DHT22;13447;57.174;-2.112;2023-08-08T02:13:31;10.40;1.00
25556;DHT22;13447;57.174;-2.112;2023-08-08T02:15:57;10.40;1.00
25556;DHT22;13447;57.174;-2.112;2023-08-08T02:18:24;10.30;1.00
25556;DHT22;13447;57.174;-2.112;2023-08-08T02:20:51;10.30;1.00
25556;DHT22;13447;57.174;-2.112;2023-08-08T02:23:18;10.30;1.00
25556;DHT22;13447;57.174;-2.112;2023-08-08T02:25:45;10.20;1.00
25556;DHT22;13447;57.174;-2.112;2023-08-08T02:28:12;10.20;1.00
25556;DHT22;13447;57.174;-2.112;2023-08-08T02:30:38;10.20;1.00
25556;DHT22;13447;57.174;-2.112;2023-08-08T02:33:05;10.10;1.00
25556;DHT22;13447;57.174;-2.112;2023-08-08T02:35:32;10.10;1.00
25556;DHT22;13447;57.174;-2.112;2023-08-08T02:37:59;10.10;1.00
25556;DHT22;13447;57.174;-2.112;2023-08-08T02:40:25;10.10;1.00
25556;DHT22;13447;57.174;-2.112;2023-08-08T02:42:53;10.00;1.00
25556;DHT22;13447;57.174;-2.112;2023-08-08T02:45:20;10.00;1.00
25556;DHT22;13447;57.174;-2.112;2023-08-08T02:47:47;10.00;1.00
25556;DHT22;13447;57.174;-2.112;2023-08-08T02:50:14;10.00;1.00
25556;DHT22;13447;57.174;-2.112;2023-08-08T02:52:40;10.00;1.00
25556;DHT22;13447;57.174;-2.112;2023-08-08T02:55:07;9.90;1.00
25556;DHT22;13447;57.174;-2.112;2023-08-08T02:57:34;9.90;1.00
25556;DHT22;13447;57.174;-2.112;2023-08-08T03:00:01;9.90;1.00
25556;DHT22;13447;57.174;-2.112;2023-08-08T03:02:29;9.80;1.00
25556;DHT22;13447;57.174;-2.112;2023-08-08T03:04:56;9.90;1.00
25556;DHT22;13447;57.174;-2.112;2023-08-08T03:07:23;9.90;1.00
25556;DHT22;13447;57.174;-2.112;2023-08-08T03:09:49;9.90;1.00
25556;DHT22;13447;57.174;-2.112;2023-08-08T03:12:16;9.90;1.00
25556;DHT22;13447;57.174;-2.112;2023-08-08T03:14:43;9.90;1.00
25556;DHT22;13447;57.174;-2.112;2023-08-08T03:17:10;9.90;1.00
25556;DHT22;13447;57.174;-2.112;2023-08-08T03:19:37;9.90;1.00
25556;DHT22;13447;57.174;-2.112;2023-08-08T03:22:04;9.90;1.00
25556;DHT22;13447;57.174;-2.112;2023-08-08T03:24:30;9.90;1.00
25556;DHT22;13447;57.174;-2.112;2023-08-08T03:26:57;9.80;1.00
25556;DHT22;13447;57.174;-2.112;2023-08-08T03:29:24;9.80;1.00
25556;DHT22;13447;57.174;-2.112;2023-08-08T03:31:51;9.90;1.00
25556;DHT22;13447;57.174;-2.112;2023-08-08T03:34:17;9.90;1.00
25556;DHT22;13447;57.174;-2.112;2023-08-08T03:36:44;9.90;1.00
25556;DHT22;13447;57.174;-2.112;2023-08-08T03:39:11;10.00;1.00
25556;DHT22;13447;57.174;-2.112;2023-08-08T03:41:38;10.00;1.00
25556;DHT22;13447;57.174;-2.112;2023-08-08T03:44:05;10.10;1.00
25556;DHT22;13447;57.174;-2.112;2023-08-08T03:46:32;10.20;1.00
25556;DHT22;13447;57.174;-2.112;2023-08-08T03:49:00;10.30;1.00
25556;DHT22;13447;57.174;-2.112;2023-08-08T03:51:27;10.20;1.00
25556;DHT22;13447;57.174;-2.112;2023-08-08T03:53:54;10.30;1.00
25556;DHT22;13447;57.174;-2.112;2023-08-08T03:56:21;10.30;1.00
25556;DHT22;13447;57.174;-2.112;2023-08-08T03:58:47;10.30;1.00
25556;DHT22;13447;57.174;-2.112;2023-08-08T04:01:14;10.30;1.00
25556;DHT22;13447;57.174;-2.112;2023-08-08T04:03:41;10.20;1.00
25556;DHT22;13447;57.174;-2.112;2023-08-08T04:06:08;10.20;1.00
25556;DHT22;13447;57.174;-2.112;2023-08-08T04:08:35;10.10;1.00
25556;DHT22;13447;57.174;-2.112;2023-08-08T04:11:02;10.20;1.00
25556;DHT22;13447;57.174;-2.112;2023-08-08T04:13:28;10.20;1.00
25556;DHT22;13447;57.174;-2.112;2023-08-08T04:15:55;10.20;1.00
25556;DHT22;13447;57.174;-2.112;2023-08-08T04:18:22;10.20;1.00
25556;DHT22;13447;57.174;-2.112;2023-08-08T04:20:49;10.30;1.00
25556;DHT22;13447;57.174;-2.112;2023-08-08T04:23:15;10.30;1.00
25556;DHT22;13447;57.174;-2.112;2023-08-08T04:25:42;10.30;1.00
25556;DHT22;13447;57.174;-2.112;2023-08-08T04:28:09;10.30;1.00
25556;DHT22;13447;57.174;-2.112;2023-08-08T04:30:36;10.30;1.00
25556;DHT22;13447;57.174;-2.112;2023-08-08T04:33:03;10.30;1.00
25556;DHT22;13447;57.174;-2.112;2023-08-08T04:35:30;10.30;1.00
25556;DHT22;13447;57.174;-2.112;2023-08-08T04:37:56;10.30;1.00
25556;DHT22;13447;57.174;-2.112;2023-08-08T04:40:23;10.20;1.00
25556;DHT22;13447;57.174;-2.112;2023-08-08T04:42:51;10.20;1.00
25556;DHT22;13447;57.174;-2.112;2023-08-08T04:45:17;10.20;1.00
25556;DHT22;13447;57.174;-2.112;2023-08-08T04:47:44;10.10;1.00
25556;DHT22;13447;57.174;-2.112;2023-08-08T04:50:11;10.00;1.00
25556;DHT22;13447;57.174;-2.112;2023-08-08T04:52:38;10.00;1.00
25556;DHT22;13447;57.174;-2.112;2023-08-08T04:55:05;10.00;1.00
25556;DHT22;13447;57.174;-2.112;2023-08-08T04:57:32;9.90;1.00
25556;DHT22;13447;57.174;-2.112;2023-08-08T04:59:59;9.90;1.00
25556;DHT22;13447;57.174;-2.112;2023-08-08T05:02:31;9.90;1.00
25556;DHT22;13447;57.174;-2.112;2023-08-08T05:04:59;9.90;1.00
25556;DHT22;13447;57.174;-2.112;2023-08-08T05:07:27;9.90;1.00
25556;DHT22;13447;57.174;-2.112;2023-08-08T05:09:54;9.90;1.00
25556;DHT22;13447;57.174;-2.112;2023-08-08T05:12:20;9.90;1.00
25556;DHT22;13447;57.174;-2.112;2023-08-08T05:14:47;10.00;1.00
25556;DHT22;13447;57.174;-2.112;2023-08-08T05:17:14;10.00;1.00
25556;DHT22;13447;57.174;-2.112;2023-08-08T05:19:41;10.00;1.00
25556;DHT22;13447;57.174;-2.112;2023-08-08T05:22:08;10.00;1.00
25556;DHT22;13447;57.174;-2.112;2023-08-08T05:24:34;10.00;1.00
25556;DHT22;13447;57.174;-2.112;2023-08-08T05:27:02;10.10;1.00
25556;DHT22;13447;57.174;-2.112;2023-08-08T05:29:30;10.20;1.00
25556;DHT22;13447;57.174;-2.112;2023-08-08T05:31:57;10.30;1.00
25556;DHT22;13447;57.174;-2.112;2023-08-08T05:34:24;10.40;1.00
25556;DHT22;13447;57.174;-2.112;2023-08-08T05:36:51;10.50;1.00
25556;DHT22;13447;57.174;-2.112;2023-08-08T05:39:38;10.60;1.00
25556;DHT22;13447;57.174;-2.112;2023-08-08T05:42:05;10.70;1.00
25556;DHT22;13447;57.174;-2.112;2023-08-08T05:44:32;10.80;1.00
25556;DHT22;13447;57.174;-2.112;2023-08-08T05:46:59;10.80;1.00
25556;DHT22;13447;57.174;-2.112;2023-08-08T05:49:26;10.90;99.90
25556;DHT22;13447;57.174;-2.112;2023-08-08T05:51:52;10.90;99.90
25556;DHT22;13447;57.174;-2.112;2023-08-08T05:54:19;11.00;99.90
25556;DHT22;13447;57.174;-2.112;2023-08-08T05:56:46;11.20;99.90
25556;DHT22;13447;57.174;-2.112;2023-08-08T05:59:13;11.30;99.90
25556;DHT22;13447;57.174;-2.112;2023-08-08T06:01:40;11.20;99.90
25556;DHT22;13447;57.174;-2.112;2023-08-08T06:04:07;11.30;99.90
25556;DHT22;13447;57.174;-2.112;2023-08-08T06:06:34;11.30;99.90
25556;DHT22;13447;57.174;-2.112;2023-08-08T06:09:01;11.40;99.90
25556;DHT22;13447;57.174;-2.112;2023-08-08T06:11:28;11.50;99.90
25556;DHT22;13447;57.174;-2.112;2023-08-08T06:13:54;11.50;99.90
25556;DHT22;13447;57.174;-2.112;2023-08-08T06:16:21;11.60;99.90
25556;DHT22;13447;57.174;-2.112;2023-08-08T06:18:48;11.60;99.90
25556;DHT22;13447;57.174;-2.112;2023-08-08T06:21:15;11.70;99.90
25556;DHT22;13447;57.174;-2.112;2023-08-08T06:23:42;11.80;99.90
25556;DHT22;13447;57.174;-2.112;2023-08-08T06:26:09;11.90;99.90
25556;DHT22;13447;57.174;-2.112;2023-08-08T06:28:36;11.90;99.90
25556;DHT22;13447;57.174;-2.112;2023-08-08T06:31:02;12.00;99.90
25556;DHT22;13447;57.174;-2.112;2023-08-08T06:33:29;12.00;99.90
25556;DHT22;13447;57.174;-2.112;2023-08-08T06:35:56;12.10;99.90
25556;DHT22;13447;57.174;-2.112;2023-08-08T06:38:23;12.20;99.90
25556;DHT22;13447;57.174;-2.112;2023-08-08T06:40:49;12.20;99.90
25556;DHT22;13447;57.174;-2.112;2023-08-08T06:43:17;12.30;99.90
25556;DHT22;13447;57.174;-2.112;2023-08-08T06:45:43;12.30;99.90
25556;DHT22;13447;57.174;-2.112;2023-08-08T06:48:10;12.40;99.90
25556;DHT22;13447;57.174;-2.112;2023-08-08T06:50:37;12.40;99.90
25556;DHT22;13447;57.174;-2.112;2023-08-08T06:53:04;12.50;99.90
25556;DHT22;13447;57.174;-2.112;2023-08-08T06:55:31;12.60;99.90
25556;DHT22;13447;57.174;-2.112;2023-08-08T06:57:58;12.70;99.90
25556;DHT22;13447;57.174;-2.112;2023-08-08T07:00:25;12.80;99.90
25556;DHT22;13447;57.174;-2.112;2023-08-08T07:02:53;12.80;99.90
25556;DHT22;13447;57.174;-2.112;2023-08-08T07:05:20;12.90;99.90
25556;DHT22;13447;57.174;-2.112;2023-08-08T07:07:52;13.00;99.90
25556;DHT22;13447;57.174;-2.112;2023-08-08T07:10:19;13.10;99.90
25556;DHT22;13447;57.174;-2.112;2023-08-08T07:12:46;13.20;99.90
25556;DHT22;13447;57.174;-2.112;2023-08-08T07:15:12;13.30;99.90
25556;DHT22;13447;57.174;-2.112;2023-08-08T07:17:40;13.30;99.90
25556;DHT22;13447;57.174;-2.112;2023-08-08T07:20:07;13.40;99.90
25556;DHT22;13447;57.174;-2.112;2023-08-08T07:22:36;13.40;99.90
25556;DHT22;13447;57.174;-2.112;2023-08-08T07:25:04;13.60;99.90
25556;DHT22;13447;57.174;-2.112;2023-08-08T07:27:32;13.70;99.90
25556;DHT22;13447;57.174;-2.112;2023-08-08T07:29:59;13.70;88.20
25556;DHT22;13447;57.174;-2.112;2023-08-08T07:32:27;13.70;83.10
25556;DHT22;13447;57.174;-2.112;2023-08-08T07:34:56;13.80;57.00
25556;DHT22;13447;57.174;-2.112;2023-08-08T07:37:23;13.80;51.70
25556;DHT22;13447;57.174;-2.112;2023-08-08T07:39:50;13.90;31.90
25556;DHT22;13447;57.174;-2.112;2023-08-08T07:42:18;13.90;47.60
25556;DHT22;13447;57.174;-2.112;2023-08-08T07:44:45;13.90;9.90
25556;DHT22;13447;57.174;-2.112;2023-08-08T07:47:12;14.00;10.50
25556;DHT22;13447;57.174;-2.112;2023-08-08T07:49:39;14.00;31.60
25556;DHT22;13447;57.174;-2.112;2023-08-08T07:52:06;14.10;61.40
25556;DHT22;13447;57.174;-2.112;2023-08-08T07:54:34;14.10;18.80
25556;DHT22;13447;57.174;-2.112;2023-08-08T07:57:01;14.20;20.10
25556;DHT22;13447;57.174;-2.112;2023-08-08T07:59:28;14.30;1.00
25556;DHT22;13447;57.174;-2.112;2023-08-08T08:01:54;14.20;1.00
25556;DHT22;13447;57.174;-2.112;2023-08-08T08:04:21;14.20;1.00
25556;DHT22;13447;57.174;-2.112;2023-08-08T08:06:48;14.30;1.00
25556;DHT22;13447;57.174;-2.112;2023-08-08T08:09:15;14.30;1.00
25556;DHT22;13447;57.174;-2.112;2023-08-08T08:11:42;14.40;1.00
25556;DHT22;13447;57.174;-2.112;2023-08-08T08:14:09;14.50;8.10
25556;DHT22;13447;57.174;-2.112;2023-08-08T08:16:35;14.50;4.10
25556;DHT22;13447;57.174;-2.112;2023-08-08T08:19:03;14.60;1.00
25556;DHT22;13447;57.174;-2.112;2023-08-08T08:21:30;14.70;1.00
25556;DHT22;13447;57.174;-2.112;2023-08-08T08:23:57;14.70;1.00
25556;DHT22;13447;57.174;-2.112;2023-08-08T08:26:24;14.80;1.00
25556;DHT22;13447;57.174;-2.112;2023-08-08T08:28:51;14.90;1.00
25556;DHT22;13447;57.174;-2.112;2023-08-08T08:31:17;15.00;1.00
25556;DHT22;13447;57.174;-2.112;2023-08-08T08:33:44;15.10;1.00
25556;DHT22;13447;57.174;-2.112;2023-08-08T08:36:12;15.30;1.00
25556;DHT22;13447;57.174;-2.112;2023-08-08T08:38:40;15.40;1.00
25556;DHT22;13447;57.174;-2.112;2023-08-08T08:41:06;15.50;1.00
25556;DHT22;13447;57.174;-2.112;2023-08-08T08:43:35;15.60;1.00
25556;DHT22;13447;57.174;-2.112;2023-08-08T08:46:02;15.40;1.00
25556;DHT22;13447;57.174;-2.112;2023-08-08T08:48:29;15.50;1.00
25556;DHT22;13447;57.174;-2.112;2023-08-08T08:50:57;15.60;1.00
25556;DHT22;13447;57.174;-2.112;2023-08-08T08:53:25;15.80;1.00
25556;DHT22;13447;57.174;-2.112;2023-08-08T08:55:52;16.00;1.00
25556;DHT22;13447;57.174;-2.112;2023-08-08T08:58:20;16.20;1.00
25556;DHT22;13447;57.174;-2.112;2023-08-08T09:00:47;16.40;1.00
25556;DHT22;13447;57.174;-2.112;2023-08-08T09:03:15;16.60;1.00
25556;DHT22;13447;57.174;-2.112;2023-08-08T09:05:42;17.00;1.00
25556;DHT22;13447;57.174;-2.112;2023-08-08T09:08:11;17.20;1.00
25556;DHT22;13447;57.174;-2.112;2023-08-08T09:10:38;17.00;1.00
25556;DHT22;13447;57.174;-2.112;2023-08-08T09:13:05;17.00;1.00
25556;DHT22;13447;57.174;-2.112;2023-08-08T09:15:33;17.20;1.00
25556;DHT22;13447;57.174;-2.112;2023-08-08T09:18:00;17.30;1.00
25556;DHT22;13447;57.174;-2.112;2023-08-08T09:20:27;17.40;1.00
25556;DHT22;13447;57.174;-2.112;2023-08-08T09:22:57;17.80;1.00
25556;DHT22;13447;57.174;-2.112;2023-08-08T09:25:25;18.00;1.00
25556;DHT22;13447;57.174;-2.112;2023-08-08T09:27:53;18.10;1.00
25556;DHT22;13447;57.174;-2.112;2023-08-08T09:30:19;18.00;1.00
25556;DHT22;13447;57.174;-2.112;2023-08-08T09:32:46;17.60;1.00
25556;DHT22;13447;57.174;-2.112;2023-08-08T09:35:14;17.70;1.00
25556;DHT22;13447;57.174;-2.112;2023-08-08T09:37:41;17.60;1.00
25556;DHT22;13447;57.174;-2.112;2023-08-08T09:40:08;18.00;1.00
25556;DHT22;13447;57.174;-2.112;2023-08-08T09:42:39;18.60;1.00
25556;DHT22;13447;57.174;-2.112;2023-08-08T09:45:06;19.10;99.90
25556;DHT22;13447;57.174;-2.112;2023-08-08T09:47:34;18.90;99.90
25556;DHT22;13447;57.174;-2.112;2023-08-08T09:50:02;18.70;99.90
25556;DHT22;13447;57.174;-2.112;2023-08-08T09:52:32;18.00;99.90
25556;DHT22;13447;57.174;-2.112;2023-08-08T09:55:00;17.70;99.90
25556;DHT22;13447;57.174;-2.112;2023-08-08T09:57:27;18.20;99.90
25556;DHT22;13447;57.174;-2.112;2023-08-08T09:59:53;18.80;99.90
25556;DHT22;13447;57.174;-2.112;2023-08-08T10:02:21;18.80;99.90
25556;DHT22;13447;57.174;-2.112;2023-08-08T10:04:48;18.60;99.90
25556;DHT22;13447;57.174;-2.112;2023-08-08T10:07:15;18.20;99.90
25556;DHT22;13447;57.174;-2.112;2023-08-08T10:09:41;18.00;99.90
25556;DHT22;13447;57.174;-2.112;2023-08-08T10:12:09;17.90;99.90
25556;DHT22;13447;57.174;-2.112;2023-08-08T10:14:38;17.90;99.90
25556;DHT22;13447;57.174;-2.112;2023-08-08T10:17:08;18.50;99.90
25556;DHT22;13447;57.174;-2.112;2023-08-08T10:19:34;19.20;99.90
25556;DHT22;13447;57.174;-2.112;2023-08-08T10:22:03;19.20;99.90
25556;DHT22;13447;57.174;-2.112;2023-08-08T10:24:34;19.50;99.90
25556;DHT22;13447;57.174;-2.112;2023-08-08T10:27:02;19.50;99.90
25556;DHT22;13447;57.174;-2.112;2023-08-08T10:29:31;19.60;99.90
25556;DHT22;13447;57.174;-2.112;2023-08-08T10:32:02;19.80;99.90
25556;DHT22;13447;57.174;-2.112;2023-08-08T10:34:39;20.10;99.90
25556;DHT22;13447;57.174;-2.112;2023-08-08T10:37:13;19.90;99.90
25556;DHT22;13447;57.174;-2.112;2023-08-08T10:42:41;20.30;99.90
25556;DHT22;13447;57.174;-2.112;2023-08-08T10:45:12;20.80;99.90
25556;DHT22;13447;57.174;-2.112;2023-08-08T10:47:42;21.10;99.90
25556;DHT22;13447;57.174;-2.112;2023-08-08T10:50:10;20.30;99.90
25556;DHT22;13447;57.174;-2.112;2023-08-08T10:57:57;18.60;99.90
25556;DHT22;13447;57.174;-2.112;2023-08-08T11:00:26;18.80;99.90
25556;DHT22;13447;57.174;-2.112;2023-08-08T11:02:54;19.00;99.90
25556;DHT22;13447;57.174;-2.112;2023-08-08T11:05:22;19.50;99.90
25556;DHT22;13447;57.174;-2.112;2023-08-08T11:07:49;19.70;99.90
25556;DHT22;13447;57.174;-2.112;2023-08-08T11:10:16;19.80;99.90
25556;DHT22;13447;57.174;-2.112;2023-08-08T11:12:57;20.30;99.90
25556;DHT22;13447;57.174;-2.112;2023-08-08T11:15:24;20.80;99.90
25556;DHT22;13447;57.174;-2.112;2023-08-08T11:17:51;20.70;99.90
25556;DHT22;13447;57.174;-2.112;2023-08-08T11:20:19;20.40;99.90
25556;DHT22;13447;57.174;-2.112;2023-08-08T11:22:50;19.70;99.90
25556;DHT22;13447;57.174;-2.112;2023-08-08T11:25:16;19.20;99.90
25556;DHT22;13447;57.174;-2.112;2023-08-08T11:27:50;18.90;99.90
25556;DHT22;13447;57.174;-2.112;2023-08-08T11:30:18;19.00;99.90
25556;DHT22;13447;57.174;-2.112;2023-08-08T11:32:45;19.40;99.90
25556;DHT22;13447;57.174;-2.112;2023-08-08T11:35:32;19.70;99.90
25556;DHT22;13447;57.174;-2.112;2023-08-08T11:38:00;20.30;99.90
25556;DHT22;13447;57.174;-2.112;2023-08-08T11:40:28;20.60;99.90
25556;DHT22;13447;57.174;-2.112;2023-08-08T11:42:56;20.80;99.90
25556;DHT22;13447;57.174;-2.112;2023-08-08T11:45:23;21.10;99.90
25556;DHT22;13447;57.174;-2.112;2023-08-08T11:47:52;21.40;99.90
25556;DHT22;13447;57.174;-2.112;2023-08-08T11:50:20;21.60;99.90
25556;DHT22;13447;57.174;-2.112;2023-08-08T11:52:50;21.60;99.90
25556;DHT22;13447;57.174;-2.112;2023-08-08T11:55:17;21.70;99.90
25556;DHT22;13447;57.174;-2.112;2023-08-08T11:57:48;21.60;99.90
25556;DHT22;13447;57.174;-2.112;2023-08-08T12:00:16;21.10;99.90
25556;DHT22;13447;57.174;-2.112;2023-08-08T12:02:44;20.30;99.90
25556;DHT22;13447;57.174;-2.112;2023-08-08T12:05:13;19.70;99.90
25556;DHT22;13447;57.174;-2.112;2023-08-08T12:07:43;19.30;99.90
25556;DHT22;13447;57.174;-2.112;2023-08-08T12:10:16;19.60;99.90
25556;DHT22;13447;57.174;-2.112;2023-08-08T12:12:44;20.00;99.90
25556;DHT22;13447;57.174;-2.112;2023-08-08T12:17:42;20.50;99.90
25556;DHT22;13447;57.174;-2.112;2023-08-08T12:20:09;21.30;99.90
25556;DHT22;13447;57.174;-2.112;2023-08-08T12:22:36;21.60;99.90
25556;DHT22;13447;57.174;-2.112;2023-08-08T12:25:04;21.80;99.90
25556;DHT22;13447;57.174;-2.112;2023-08-08T12:27:31;22.00;99.90
25556;DHT22;13447;57.174;-2.112;2023-08-08T12:29:58;21.40;99.90
25556;DHT22;13447;57.174;-2.112;2023-08-08T12:32:25;20.80;99.90
25556;DHT22;13447;57.174;-2.112;2023-08-08T12:34:53;20.20;99.90
25556;DHT22;13447;57.174;-2.112;2023-08-08T12:37:21;19.70;99.90
25556;DHT22;13447;57.174;-2.112;2023-08-08T12:39:48;19.20;99.90
25556;DHT22;13447;57.174;-2.112;2023-08-08T12:42:15;18.90;99.90
25556;DHT22;13447;57.174;-2.112;2023-08-08T12:44:42;18.70;99.90
25556;DHT22;13447;57.174;-2.112;2023-08-08T12:47:09;18.40;99.90
25556;DHT22;13447;57.174;-2.112;2023-08-08T12:49:37;18.30;99.90
25556;DHT22;13447;57.174;-2.112;2023-08-08T12:52:04;18.10;99.90
25556;DHT22;13447;57.174;-2.112;2023-08-08T12:54:31;18.10;99.90
25556;DHT22;13447;57.174;-2.112;2023-08-08T12:56:57;18.00;1.00
25556;DHT22;13447;57.174;-2.112;2023-08-08T12:59:25;18.00;1.00
25556;DHT22;13447;57.174;-2.112;2023-08-08T13:01:51;18.00;1.00
25556;DHT22;13447;57.174;-2.112;2023-08-08T13:04:18;18.10;1.00
25556;DHT22;13447;57.174;-2.112;2023-08-08T13:06:47;18.20;99.90
25556;DHT22;13447;57.174;-2.112;2023-08-08T13:11:42;18.60;99.90
25556;DHT22;13447;57.174;-2.112;2023-08-08T13:14:09;18.70;99.90
25556;DHT22;13447;57.174;-2.112;2023-08-08T13:16:35;18.40;99.90
25556;DHT22;13447;57.174;-2.112;2023-08-08T13:19:03;18.20;99.90
25556;DHT22;13447;57.174;-2.112;2023-08-08T13:21:30;17.90;99.90
25556;DHT22;13447;57.174;-2.112;2023-08-08T13:23:57;17.60;99.90
25556;DHT22;13447;57.174;-2.112;2023-08-08T13:26:24;17.60;99.90
25556;DHT22;13447;57.174;-2.112;2023-08-08T13:28:51;17.80;99.90
25556;DHT22;13447;57.174;-2.112;2023-08-08T13:31:18;18.00;99.90
25556;DHT22;13447;57.174;-2.112;2023-08-08T13:33:45;18.10;99.90
25556;DHT22;13447;57.174;-2.112;2023-08-08T13:36:12;18.10;99.90
25556;DHT22;13447;57.174;-2.112;2023-08-08T13:38:39;18.00;99.90
25556;DHT22;13447;57.174;-2.112;2023-08-08T13:41:05;17.70;1.00
25556;DHT22;13447;57.174;-2.112;2023-08-08T13:43:32;17.40;1.00
25556;DHT22;13447;57.174;-2.112;2023-08-08T13:46:00;17.00;1.00
25556;DHT22;13447;57.174;-2.112;2023-08-08T13:48:27;16.90;1.00
25556;DHT22;13447;57.174;-2.112;2023-08-08T13:50:54;16.80;1.00
25556;DHT22;13447;57.174;-2.112;2023-08-08T13:53:21;16.90;1.00
25556;DHT22;13447;57.174;-2.112;2023-08-08T13:55:47;16.90;1.00
25556;DHT22;13447;57.174;-2.112;2023-08-08T13:58:14;16.90;1.00
25556;DHT22;13447;57.174;-2.112;2023-08-08T14:00:41;16.90;1.00
25556;DHT22;13447;57.174;-2.112;2023-08-08T14:03:08;16.90;1.00
25556;DHT22;13447;57.174;-2.112;2023-08-08T14:05:35;17.10;1.00
25556;DHT22;13447;57.174;-2.112;2023-08-08T14:08:03;17.40;1.00
25556;DHT22;13447;57.174;-2.112;2023-08-08T14:10:31;17.50;1.00
25556;DHT22;13447;57.174;-2.112;2023-08-08T14:12:57;17.80;1.00
25556;DHT22;13447;57.174;-2.112;2023-08-08T14:15:24;17.80;1.00
25556;DHT22;13447;57.174;-2.112;2023-08-08T14:17:51;17.90;1.00
25556;DHT22;13447;57.174;-2.112;2023-08-08T14:20:18;17.90;1.00
25556;DHT22;13447;57.174;-2.112;2023-08-08T14:22:45;17.80;1.00
25556;DHT22;13447;57.174;-2.112;2023-08-08T14:25:13;17.70;1.00
25556;DHT22;13447;57.174;-2.112;2023-08-08T14:27:40;17.70;1.00
25556;DHT22;13447;57.174;-2.112;2023-08-08T14:30:07;17.60;1.00
25556;DHT22;13447;57.174;-2.112;2023-08-08T14:32:34;17.60;1.00
25556;DHT22;13447;57.174;-2.112;2023-08-08T14:35:01;17.50;1.00
25556;DHT22;13447;57.174;-2.112;2023-08-08T14:37:29;17.50;1.00
25556;DHT22;13447;57.174;-2.112;2023-08-08T14:39:56;17.50;1.00
25556;DHT22;13447;57.174;-2.112;2023-08-08T14:42:22;17.50;1.00
25556;DHT22;13447;57.174;-2.112;2023-08-08T14:44:49;17.60;1.00
25556;DHT22;13447;57.174;-2.112;2023-08-08T14:47:16;17.80;1.00
25556;DHT22;13447;57.174;-2.112;2023-08-08T14:49:43;17.80;1.00
25556;DHT22;13447;57.174;-2.112;2023-08-08T14:52:09;17.90;1.00
25556;DHT22;13447;57.174;-2.112;2023-08-08T14:54:37;17.90;1.00
25556;DHT22;13447;57.174;-2.112;2023-08-08T14:57:04;17.80;1.00
25556;DHT22;13447;57.174;-2.112;2023-08-08T14:59:32;17.70;1.00
25556;DHT22;13447;57.174;-2.112;2023-08-08T15:01:58;17.70;1.00
25556;DHT22;13447;57.174;-2.112;2023-08-08T15:04:25;17.50;1.00
25556;DHT22;13447;57.174;-2.112;2023-08-08T15:06:52;17.10;1.00
25556;DHT22;13447;57.174;-2.112;2023-08-08T15:09:19;16.80;1.00
25556;DHT22;13447;57.174;-2.112;2023-08-08T15:11:46;16.70;1.00
25556;DHT22;13447;57.174;-2.112;2023-08-08T15:14:12;16.60;1.00
25556;DHT22;13447;57.174;-2.112;2023-08-08T15:16:39;16.70;1.00
25556;DHT22;13447;57.174;-2.112;2023-08-08T15:19:06;16.70;1.00
25556;DHT22;13447;57.174;-2.112;2023-08-08T15:21:33;16.70;1.00
25556;DHT22;13447;57.174;-2.112;2023-08-08T15:24:00;16.70;1.00
25556;DHT22;13447;57.174;-2.112;2023-08-08T15:26:27;16.70;1.00
25556;DHT22;13447;57.174;-2.112;2023-08-08T15:28:54;16.70;1.00
25556;DHT22;13447;57.174;-2.112;2023-08-08T15:31:21;16.70;1.00
25556;DHT22;13447;57.174;-2.112;2023-08-08T15:33:48;16.80;1.00
25556;DHT22;13447;57.174;-2.112;2023-08-08T15:36:14;16.80;1.00
25556;DHT22;13447;57.174;-2.112;2023-08-08T15:38:41;16.80;1.00
25556;DHT22;13447;57.174;-2.112;2023-08-08T15:41:08;16.90;1.00
25556;DHT22;13447;57.174;-2.112;2023-08-08T15:43:35;16.80;1.00
25556;DHT22;13447;57.174;-2.112;2023-08-08T15:46:02;16.80;1.00
25556;DHT22;13447;57.174;-2.112;2023-08-08T15:48:29;16.80;1.00